sensor_id;sensor_type;location;lat;lon;timestamp;temperature;humidity
25741;DHT22;13592;50.838;4.412;2022-08-19T00:02:12;23.40;99.90
25741;DHT22;13592;50.838;4.412;2022-08-19T00:04:54;23.60;99.90
25741;DHT22;13592;50.838;4.412;2022-08-19T00:07:29;23.50;99.90
25741;DHT22;13592;50.838;4.412;2022-08-19T00:18:25;23.40;99.90
25741;DHT22;13592;50.838;4.412;2022-08-19T00:23:47;23.40;99.90
25741;DHT22;13592;50.838;4.412;2022-08-19T00:26:20;23.40;99.90
25741;DHT22;13592;50.838;4.412;2022-08-19T00:28:54;23.30;99.90
25741;DHT22;13592;50.838;4.412;2022-08-19T00:31:36;23.20;99.90
25741;DHT22;13592;50.838;4.412;2022-08-19T00:34:27;23.10;99.90
25741;DHT22;13592;50.838;4.412;2022-08-19T00:36:56;23.20;99.90
25741;DHT22;13592;50.838;4.412;2022-08-19T00:40:21;23.10;99.90
25741;DHT22;13592;50.838;4.412;2022-08-19T00:46:00;23.00;99.90
25741;DHT22;13592;50.838;4.412;2022-08-19T00:48:47;23.00;99.90
25741;DHT22;13592;50.838;4.412;2022-08-19T00:54:05;23.20;99.90
25741;DHT22;13592;50.838;4.412;2022-08-19T00:56:52;23.20;99.90
25741;DHT22;13592;50.838;4.412;2022-08-19T01:08:20;23.20;99.90
25741;DHT22;13592;50.838;4.412;2022-08-19T01:11:26;23.20;99.90
25741;DHT22;13592;50.838;4.412;2022-08-19T01:14:07;23.10;99.90
25741;DHT22;13592;50.838;4.412;2022-08-19T01:16:46;23.00;99.90
25741;DHT22;13592;50.838;4.412;2022-08-19T01:22:11;22.90;99.90
25741;DHT22;13592;50.838;4.412;2022-08-19T01:24:59;22.70;99.90
25741;DHT22;13592;50.838;4.412;2022-08-19T01:27:51;22.90;99.90
25741;DHT22;13592;50.838;4.412;2022-08-19T01:30:23;22.90;99.90
25741;DHT22;13592;50.838;4.412;2022-08-19T01:38:25;22.90;99.90
25741;DHT22;13592;50.838;4.412;2022-08-19T01:40:58;23.00;99.90
25741;DHT22;13592;50.838;4.412;2022-08-19T01:43:29;22.90;99.90
25741;DHT22;13592;50.838;4.412;2022-08-19T01:45:58;22.80;99.90
25741;DHT22;13592;50.838;4.412;2022-08-19T01:51:12;22.70;99.90
25741;DHT22;13592;50.838;4.412;2022-08-19T01:53:37;22.60;99.90
25741;DHT22;13592;50.838;4.412;2022-08-19T01:56:04;22.70;99.90
25741;DHT22;13592;50.838;4.412;2022-08-19T01:58:38;22.60;99.90
25741;DHT22;13592;50.838;4.412;2022-08-19T02:01:05;22.60;99.90
25741;DHT22;13592;50.838;4.412;2022-08-19T02:06:02;22.60;99.90
25741;DHT22;13592;50.838;4.412;2022-08-19T02:08:32;22.50;99.90
25741;DHT22;13592;50.838;4.412;2022-08-19T02:10:59;22.50;99.90
25741;DHT22;13592;50.838;4.412;2022-08-19T02:13:25;22.60;99.90
25741;DHT22;13592;50.838;4.412;2022-08-19T02:15:51;22.50;99.90
25741;DHT22;13592;50.838;4.412;2022-08-19T02:18:17;22.50;99.90
25741;DHT22;13592;50.838;4.412;2022-08-19T02:20:43;22.60;99.90
25741;DHT22;13592;50.838;4.412;2022-08-19T02:23:11;22.70;99.90
25741;DHT22;13592;50.838;4.412;2022-08-19T02:28:07;22.50;99.90
25741;DHT22;13592;50.838;4.412;2022-08-19T02:30:35;22.50;99.90
25741;DHT22;13592;50.838;4.412;2022-08-19T02:33:10;22.40;99.90
25741;DHT22;13592;50.838;4.412;2022-08-19T02:35:36;22.40;99.90
25741;DHT22;13592;50.838;4.412;2022-08-19T02:38:02;22.30;99.90
25741;DHT22;13592;50.838;4.412;2022-08-19T02:40:54;22.20;99.90
25741;DHT22;13592;50.838;4.412;2022-08-19T02:43:23;22.20;99.90
25741;DHT22;13592;50.838;4.412;2022-08-19T02:45:49;22.20;99.90
25741;DHT22;13592;50.838;4.412;2022-08-19T02:48:20;22.10;99.90
25741;DHT22;13592;50.838;4.412;2022-08-19T02:50:48;22.00;99.90
25741;DHT22;13592;50.838;4.412;2022-08-19T02:55:46;22.10;99.90
25741;DHT22;13592;50.838;4.412;2022-08-19T02:58:14;22.10;99.90
25741;DHT22;13592;50.838;4.412;2022-08-19T03:00:46;22.00;99.90
25741;DHT22;13592;50.838;4.412;2022-08-19T03:03:27;21.90;99.90
25741;DHT22;13592;50.838;4.412;2022-08-19T03:08:33;22.00;99.90
25741;DHT22;13592;50.838;4.412;2022-08-19T03:13:30;22.00;99.90
25741;DHT22;13592;50.838;4.412;2022-08-19T03:15:57;22.00;99.90
25741;DHT22;13592;50.838;4.412;2022-08-19T03:18:23;22.00;99.90
25741;DHT22;13592;50.838;4.412;2022-08-19T03:23:22;21.90;99.90
25741;DHT22;13592;50.838;4.412;2022-08-19T03:28:19;21.70;99.90
25741;DHT22;13592;50.838;4.412;2022-08-19T03:33:26;21.90;99.90
25741;DHT22;13592;50.838;4.412;2022-08-19T03:38:31;21.60;99.90
25741;DHT22;13592;50.838;4.412;2022-08-19T03:40:57;21.70;99.90
25741;DHT22;13592;50.838;4.412;2022-08-19T03:43:24;21.70;99.90
25741;DHT22;13592;50.838;4.412;2022-08-19T03:45:59;21.60;99.90
25741;DHT22;13592;50.838;4.412;2022-08-19T03:48:26;21.70;99.90
25741;DHT22;13592;50.838;4.412;2022-08-19T03:50:53;21.70;99.90
25741;DHT22;13592;50.838;4.412;2022-08-19T03:53:19;21.60;99.90
25741;DHT22;13592;50.838;4.412;2022-08-19T03:55:47;21.60;99.90
25741;DHT22;13592;50.838;4.412;2022-08-19T03:58:12;21.40;99.90
25741;DHT22;13592;50.838;4.412;2022-08-19T04:00:41;21.50;99.90
25741;DHT22;13592;50.838;4.412;2022-08-19T04:03:07;21.60;99.90
25741;DHT22;13592;50.838;4.412;2022-08-19T04:05:37;21.60;99.90
25741;DHT22;13592;50.838;4.412;2022-08-19T04:08:03;21.50;99.90
25741;DHT22;13592;50.838;4.412;2022-08-19T04:10:34;21.50;99.90
25741;DHT22;13592;50.838;4.412;2022-08-19T04:13:05;21.50;99.90
25741;DHT22;13592;50.838;4.412;2022-08-19T04:15:38;21.40;99.90
25741;DHT22;13592;50.838;4.412;2022-08-19T04:18:09;21.40;99.90
25741;DHT22;13592;50.838;4.412;2022-08-19T04:25:54;21.40;99.90
25741;DHT22;13592;50.838;4.412;2022-08-19T04:28:22;21.30;99.90
25741;DHT22;13592;50.838;4.412;2022-08-19T04:31:04;21.20;99.90
25741;DHT22;13592;50.838;4.412;2022-08-19T04:33:30;21.20;99.90
25741;DHT22;13592;50.838;4.412;2022-08-19T04:36:00;21.20;99.90
25741;DHT22;13592;50.838;4.412;2022-08-19T04:38:27;21.30;99.90
25741;DHT22;13592;50.838;4.412;2022-08-19T04:40:55;21.20;99.90
25741;DHT22;13592;50.838;4.412;2022-08-19T04:43:39;21.10;99.90
25741;DHT22;13592;50.838;4.412;2022-08-19T04:46:10;21.10;99.90
25741;DHT22;13592;50.838;4.412;2022-08-19T04:48:36;21.00;99.90
25741;DHT22;13592;50.838;4.412;2022-08-19T04:51:10;21.00;99.90
25741;DHT22;13592;50.838;4.412;2022-08-19T04:53:54;21.00;99.90
25741;DHT22;13592;50.838;4.412;2022-08-19T04:59:24;20.90;99.90
25741;DHT22;13592;50.838;4.412;2022-08-19T05:01:53;21.00;99.90
25741;DHT22;13592;50.838;4.412;2022-08-19T05:04:22;21.10;99.90
25741;DHT22;13592;50.838;4.412;2022-08-19T05:06:48;21.10;99.90
25741;DHT22;13592;50.838;4.412;2022-08-19T05:09:16;20.90;99.90
25741;DHT22;13592;50.838;4.412;2022-08-19T05:14:43;20.90;99.90
25741;DHT22;13592;50.838;4.412;2022-08-19T05:17:23;21.00;99.90
25741;DHT22;13592;50.838;4.412;2022-08-19T05:22:58;21.10;99.90
25741;DHT22;13592;50.838;4.412;2022-08-19T05:25:30;21.20;99.90
25741;DHT22;13592;50.838;4.412;2022-08-19T05:28:01;21.20;99.90
25741;DHT22;13592;50.838;4.412;2022-08-19T05:30:29;21.30;99.90
25741;DHT22;13592;50.838;4.412;2022-08-19T05:33:07;21.20;99.90
25741;DHT22;13592;50.838;4.412;2022-08-19T05:35:41;21.10;99.90
25741;DHT22;13592;50.838;4.412;2022-08-19T05:41:31;21.20;99.90
25741;DHT22;13592;50.838;4.412;2022-08-19T05:44:03;21.30;99.90
25741;DHT22;13592;50.838;4.412;2022-08-19T05:49:25;21.40;99.90
25741;DHT22;13592;50.838;4.412;2022-08-19T05:51:53;21.40;99.90
25741;DHT22;13592;50.838;4.412;2022-08-19T05:54:23;21.10;99.90
25741;DHT22;13592;50.838;4.412;2022-08-19T05:56:50;21.30;99.90
25741;DHT22;13592;50.838;4.412;2022-08-19T05:59:20;21.10;99.90
25741;DHT22;13592;50.838;4.412;2022-08-19T06:01:59;20.90;99.90
25741;DHT22;13592;50.838;4.412;2022-08-19T06:04:26;21.00;99.90
25741;DHT22;13592;50.838;4.412;2022-08-19T06:07:00;21.00;99.90
25741;DHT22;13592;50.838;4.412;2022-08-19T06:09:30;21.10;99.90
25741;DHT22;13592;50.838;4.412;2022-08-19T06:12:08;20.70;99.90
25741;DHT22;13592;50.838;4.412;2022-08-19T06:17:22;20.70;99.90
25741;DHT22;13592;50.838;4.412;2022-08-19T06:19:53;20.50;99.90
25741;DHT22;13592;50.838;4.412;2022-08-19T06:22:21;20.30;99.90
25741;DHT22;13592;50.838;4.412;2022-08-19T06:24:47;20.90;99.90
25741;DHT22;13592;50.838;4.412;2022-08-19T06:27:16;20.90;99.90
25741;DHT22;13592;50.838;4.412;2022-08-19T06:29:44;20.90;99.90
25741;DHT22;13592;50.838;4.412;2022-08-19T06:34:42;21.10;99.90
25741;DHT22;13592;50.838;4.412;2022-08-19T06:37:13;21.30;99.90
25741;DHT22;13592;50.838;4.412;2022-08-19T06:39:40;21.40;99.90
25741;DHT22;13592;50.838;4.412;2022-08-19T06:44:38;21.50;99.90
25741;DHT22;13592;50.838;4.412;2022-08-19T06:47:07;21.70;99.90
25741;DHT22;13592;50.838;4.412;2022-08-19T06:49:35;21.90;99.90
25741;DHT22;13592;50.838;4.412;2022-08-19T06:52:07;22.10;99.90
25741;DHT22;13592;50.838;4.412;2022-08-19T06:54:36;22.00;99.90
25741;DHT22;13592;50.838;4.412;2022-08-19T06:57:03;22.20;99.90
25741;DHT22;13592;50.838;4.412;2022-08-19T06:59:29;22.10;99.90
25741;DHT22;13592;50.838;4.412;2022-08-19T07:02:00;22.30;99.90
25741;DHT22;13592;50.838;4.412;2022-08-19T07:04:28;22.30;99.90
25741;DHT22;13592;50.838;4.412;2022-08-19T07:06:57;22.30;99.90
25741;DHT22;13592;50.838;4.412;2022-08-19T07:09:25;22.40;99.90
25741;DHT22;13592;50.838;4.412;2022-08-19T07:11:52;22.60;99.90
25741;DHT22;13592;50.838;4.412;2022-08-19T07:14:24;22.50;99.90
25741;DHT22;13592;50.838;4.412;2022-08-19T07:16:50;22.50;99.90
25741;DHT22;13592;50.838;4.412;2022-08-19T07:19:17;22.50;99.90
25741;DHT22;13592;50.838;4.412;2022-08-19T07:21:47;22.50;99.90
25741;DHT22;13592;50.838;4.412;2022-08-19T07:24:12;22.50;99.90
25741;DHT22;13592;50.838;4.412;2022-08-19T07:26:39;22.30;99.90
25741;DHT22;13592;50.838;4.412;2022-08-19T07:29:05;22.20;99.90
25741;DHT22;13592;50.838;4.412;2022-08-19T07:31:31;22.60;99.90
25741;DHT22;13592;50.838;4.412;2022-08-19T07:34:02;22.80;99.90
25741;DHT22;13592;50.838;4.412;2022-08-19T07:36:28;22.70;99.90
25741;DHT22;13592;50.838;4.412;2022-08-19T07:38:57;22.80;99.90
25741;DHT22;13592;50.838;4.412;2022-08-19T07:41:27;22.80;99.90
25741;DHT22;13592;50.838;4.412;2022-08-19T07:43:55;22.60;99.90
25741;DHT22;13592;50.838;4.412;2022-08-19T07:46:28;22.80;99.90
25741;DHT22;13592;50.838;4.412;2022-08-19T07:52:04;22.70;99.90
25741;DHT22;13592;50.838;4.412;2022-08-19T07:57:01;23.10;99.90
25741;DHT22;13592;50.838;4.412;2022-08-19T07:59:27;23.30;99.90
25741;DHT22;13592;50.838;4.412;2022-08-19T08:01:54;23.30;99.90
25741;DHT22;13592;50.838;4.412;2022-08-19T08:04:26;23.30;99.90
25741;DHT22;13592;50.838;4.412;2022-08-19T08:07:13;23.30;99.90
25741;DHT22;13592;50.838;4.412;2022-08-19T08:12:29;23.40;99.90
25741;DHT22;13592;50.838;4.412;2022-08-19T08:14:59;23.40;99.90
25741;DHT22;13592;50.838;4.412;2022-08-19T08:19:56;23.10;99.90
25741;DHT22;13592;50.838;4.412;2022-08-19T08:22:35;23.10;99.90
25741;DHT22;13592;50.838;4.412;2022-08-19T08:25:21;23.40;99.90
25741;DHT22;13592;50.838;4.412;2022-08-19T08:27:49;23.60;99.90
25741;DHT22;13592;50.838;4.412;2022-08-19T08:30:19;23.60;99.90
25741;DHT22;13592;50.838;4.412;2022-08-19T08:37:46;23.60;99.90
25741;DHT22;13592;50.838;4.412;2022-08-19T08:45:28;23.40;99.90
25741;DHT22;13592;50.838;4.412;2022-08-19T08:50:29;23.20;99.90
25741;DHT22;13592;50.838;4.412;2022-08-19T08:53:01;23.30;99.90
25741;DHT22;13592;50.838;4.412;2022-08-19T08:57:59;23.40;99.90
25741;DHT22;13592;50.838;4.412;2022-08-19T09:00:27;23.50;99.90
25741;DHT22;13592;50.838;4.412;2022-08-19T09:02:58;23.50;99.90
25741;DHT22;13592;50.838;4.412;2022-08-19T09:05:27;23.20;99.90
25741;DHT22;13592;50.838;4.412;2022-08-19T09:08:07;23.20;99.90
25741;DHT22;13592;50.838;4.412;2022-08-19T09:10:39;23.10;99.90
25741;DHT22;13592;50.838;4.412;2022-08-19T09:15:56;23.20;99.90
25741;DHT22;13592;50.838;4.412;2022-08-19T09:18:39;23.20;99.90
25741;DHT22;13592;50.838;4.412;2022-08-19T09:21:07;23.20;99.90
25741;DHT22;13592;50.838;4.412;2022-08-19T09:23:34;23.50;99.90
25741;DHT22;13592;50.838;4.412;2022-08-19T09:26:11;23.30;99.90
25741;DHT22;13592;50.838;4.412;2022-08-19T09:28:49;23.20;99.90
25741;DHT22;13592;50.838;4.412;2022-08-19T09:31:19;23.30;99.90
25741;DHT22;13592;50.838;4.412;2022-08-19T09:33:47;23.30;99.90
25741;DHT22;13592;50.838;4.412;2022-08-19T09:36:15;23.60;99.90
25741;DHT22;13592;50.838;4.412;2022-08-19T09:41:14;23.80;99.90
25741;DHT22;13592;50.838;4.412;2022-08-19T09:43:44;23.70;99.90
25741;DHT22;13592;50.838;4.412;2022-08-19T09:46:13;23.80;99.90
25741;DHT22;13592;50.838;4.412;2022-08-19T09:48:45;23.70;99.90
25741;DHT22;13592;50.838;4.412;2022-08-19T09:51:17;23.40;99.90
25741;DHT22;13592;50.838;4.412;2022-08-19T09:54:00;23.70;99.90
25741;DHT22;13592;50.838;4.412;2022-08-19T09:56:32;23.70;99.90
25741;DHT22;13592;50.838;4.412;2022-08-19T09:58:58;23.80;99.90
25741;DHT22;13592;50.838;4.412;2022-08-19T10:01:27;23.60;99.90
25741;DHT22;13592;50.838;4.412;2022-08-19T10:03:55;23.70;99.90
25741;DHT22;13592;50.838;4.412;2022-08-19T10:06:24;23.90;99.90
25741;DHT22;13592;50.838;4.412;2022-08-19T10:08:51;23.80;99.90
25741;DHT22;13592;50.838;4.412;2022-08-19T10:11:17;23.70;99.90
25741;DHT22;13592;50.838;4.412;2022-08-19T10:13:49;23.70;99.90
25741;DHT22;13592;50.838;4.412;2022-08-19T10:16:23;23.70;99.90
25741;DHT22;13592;50.838;4.412;2022-08-19T10:18:50;23.80;99.90
25741;DHT22;13592;50.838;4.412;2022-08-19T10:21:23;23.90;99.90
25741;DHT22;13592;50.838;4.412;2022-08-19T10:23:59;24.10;99.90
25741;DHT22;13592;50.838;4.412;2022-08-19T10:31:30;23.80;99.90
25741;DHT22;13592;50.838;4.412;2022-08-19T10:33:58;23.80;99.90
25741;DHT22;13592;50.838;4.412;2022-08-19T10:36:29;23.90;99.90
25741;DHT22;13592;50.838;4.412;2022-08-19T10:39:04;24.10;99.90
25741;DHT22;13592;50.838;4.412;2022-08-19T10:41:42;24.00;99.90
25741;DHT22;13592;50.838;4.412;2022-08-19T10:44:11;24.00;99.90
25741;DHT22;13592;50.838;4.412;2022-08-19T10:46:46;24.00;99.90
25741;DHT22;13592;50.838;4.412;2022-08-19T10:49:17;24.20;99.90
25741;DHT22;13592;50.838;4.412;2022-08-19T10:54:47;24.10;99.90
25741;DHT22;13592;50.838;4.412;2022-08-19T10:57:52;24.10;99.90
25741;DHT22;13592;50.838;4.412;2022-08-19T11:00:18;24.10;99.90
25741;DHT22;13592;50.838;4.412;2022-08-19T11:05:20;24.30;99.90
25741;DHT22;13592;50.838;4.412;2022-08-19T11:13:07;23.90;99.90
25741;DHT22;13592;50.838;4.412;2022-08-19T11:15:33;23.90;99.90
25741;DHT22;13592;50.838;4.412;2022-08-19T11:20:45;23.70;99.90
25741;DHT22;13592;50.838;4.412;2022-08-19T11:23:20;23.90;99.90
25741;DHT22;13592;50.838;4.412;2022-08-19T11:25:51;23.80;99.90
25741;DHT22;13592;50.838;4.412;2022-08-19T11:28:20;23.90;99.90
25741;DHT22;13592;50.838;4.412;2022-08-19T11:30:45;23.90;99.90
25741;DHT22;13592;50.838;4.412;2022-08-19T11:33:12;23.90;99.90
25741;DHT22;13592;50.838;4.412;2022-08-19T11:35:45;23.80;99.90
25741;DHT22;13592;50.838;4.412;2022-08-19T11:40:53;23.70;99.90
25741;DHT22;13592;50.838;4.412;2022-08-19T11:45:49;23.60;99.90
25741;DHT22;13592;50.838;4.412;2022-08-19T11:48:19;23.60;99.90
25741;DHT22;13592;50.838;4.412;2022-08-19T11:50:52;23.70;99.90
25741;DHT22;13592;50.838;4.412;2022-08-19T11:53:19;23.70;99.90
25741;DHT22;13592;50.838;4.412;2022-08-19T11:55:48;23.80;99.90
25741;DHT22;13592;50.838;4.412;2022-08-19T11:58:17;23.70;99.90
25741;DHT22;13592;50.838;4.412;2022-08-19T12:00:43;23.80;99.90
25741;DHT22;13592;50.838;4.412;2022-08-19T12:05:44;24.00;99.90
25741;DHT22;13592;50.838;4.412;2022-08-19T12:08:11;24.20;99.90
25741;DHT22;13592;50.838;4.412;2022-08-19T12:10:40;24.60;99.90
25741;DHT22;13592;50.838;4.412;2022-08-19T12:13:08;24.90;99.90
25741;DHT22;13592;50.838;4.412;2022-08-19T12:15:38;25.20;99.90
25741;DHT22;13592;50.838;4.412;2022-08-19T12:18:05;25.50;99.90
25741;DHT22;13592;50.838;4.412;2022-08-19T12:20:33;25.70;99.90
25741;DHT22;13592;50.838;4.412;2022-08-19T12:23:08;25.90;99.90
25741;DHT22;13592;50.838;4.412;2022-08-19T12:25:43;25.90;99.90
25741;DHT22;13592;50.838;4.412;2022-08-19T12:28:24;25.90;99.90
25741;DHT22;13592;50.838;4.412;2022-08-19T12:30:56;25.90;99.90
25741;DHT22;13592;50.838;4.412;2022-08-19T12:33:25;25.80;99.90
25741;DHT22;13592;50.838;4.412;2022-08-19T12:35:53;25.70;99.90
25741;DHT22;13592;50.838;4.412;2022-08-19T12:38:20;25.60;99.90
25741;DHT22;13592;50.838;4.412;2022-08-19T12:40:49;25.50;99.90
25741;DHT22;13592;50.838;4.412;2022-08-19T12:43:17;25.40;99.90
25741;DHT22;13592;50.838;4.412;2022-08-19T12:45:45;25.50;99.90
25741;DHT22;13592;50.838;4.412;2022-08-19T12:48:11;25.30;99.90
25741;DHT22;13592;50.838;4.412;2022-08-19T12:55:46;25.80;99.90
25741;DHT22;13592;50.838;4.412;2022-08-19T12:58:16;25.70;99.90
25741;DHT22;13592;50.838;4.412;2022-08-19T13:00:42;25.80;99.90
25741;DHT22;13592;50.838;4.412;2022-08-19T13:03:08;25.80;99.90
25741;DHT22;13592;50.838;4.412;2022-08-19T13:05:36;25.90;99.90
25741;DHT22;13592;50.838;4.412;2022-08-19T13:08:03;25.90;99.90
25741;DHT22;13592;50.838;4.412;2022-08-19T13:10:30;26.10;99.90
25741;DHT22;13592;50.838;4.412;2022-08-19T13:18:22;26.00;99.90
25741;DHT22;13592;50.838;4.412;2022-08-19T13:23:22;26.20;99.90
25741;DHT22;13592;50.838;4.412;2022-08-19T13:26:02;26.30;99.90
25741;DHT22;13592;50.838;4.412;2022-08-19T13:28:30;26.40;99.90
25741;DHT22;13592;50.838;4.412;2022-08-19T13:34:05;26.10;99.90
25741;DHT22;13592;50.838;4.412;2022-08-19T13:36:35;26.00;99.90
25741;DHT22;13592;50.838;4.412;2022-08-19T13:41:36;26.10;99.90
25741;DHT22;13592;50.838;4.412;2022-08-19T13:44:09;26.20;99.90
25741;DHT22;13592;50.838;4.412;2022-08-19T13:46:34;26.10;99.90
25741;DHT22;13592;50.838;4.412;2022-08-19T13:49:01;25.90;99.90
25741;DHT22;13592;50.838;4.412;2022-08-19T13:51:26;26.00;99.90
25741;DHT22;13592;50.838;4.412;2022-08-19T13:53:53;26.20;99.90
25741;DHT22;13592;50.838;4.412;2022-08-19T13:56:21;26.20;99.90
25741;DHT22;13592;50.838;4.412;2022-08-19T13:58:50;26.20;99.90
25741;DHT22;13592;50.838;4.412;2022-08-19T14:01:22;26.10;99.90
25741;DHT22;13592;50.838;4.412;2022-08-19T14:03:54;26.20;99.90
25741;DHT22;13592;50.838;4.412;2022-08-19T14:06:20;26.20;99.90
25741;DHT22;13592;50.838;4.412;2022-08-19T14:08:50;26.00;99.90
25741;DHT22;13592;50.838;4.412;2022-08-19T14:11:18;25.90;99.90
25741;DHT22;13592;50.838;4.412;2022-08-19T14:16:15;25.80;99.90
25741;DHT22;13592;50.838;4.412;2022-08-19T14:18:43;25.70;99.90
25741;DHT22;13592;50.838;4.412;2022-08-19T14:21:20;25.70;99.90
25741;DHT22;13592;50.838;4.412;2022-08-19T14:26:18;25.50;99.90
25741;DHT22;13592;50.838;4.412;2022-08-19T14:28:45;25.50;99.90
25741;DHT22;13592;50.838;4.412;2022-08-19T14:31:12;25.40;99.90
25741;DHT22;13592;50.838;4.412;2022-08-19T14:33:39;25.70;99.90
25741;DHT22;13592;50.838;4.412;2022-08-19T14:36:07;25.70;99.90
25741;DHT22;13592;50.838;4.412;2022-08-19T14:38:34;25.60;99.90
25741;DHT22;13592;50.838;4.412;2022-08-19T14:41:09;25.70;99.90
25741;DHT22;13592;50.838;4.412;2022-08-19T14:43:37;25.60;99.90
25741;DHT22;13592;50.838;4.412;2022-08-19T14:46:03;25.20;99.90
25741;DHT22;13592;50.838;4.412;2022-08-19T14:50:59;25.00;99.90
25741;DHT22;13592;50.838;4.412;2022-08-19T14:53:28;24.80;99.90
25741;DHT22;13592;50.838;4.412;2022-08-19T14:55:56;24.50;99.90
25741;DHT22;13592;50.838;4.412;2022-08-19T15:00:51;24.60;99.90
25741;DHT22;13592;50.838;4.412;2022-08-19T15:03:20;24.80;99.90
25741;DHT22;13592;50.838;4.412;2022-08-19T15:05:46;24.80;99.90
25741;DHT22;13592;50.838;4.412;2022-08-19T15:08:15;24.90;99.90
25741;DHT22;13592;50.838;4.412;2022-08-19T15:10:42;25.10;99.90
25741;DHT22;13592;50.838;4.412;2022-08-19T15:13:09;25.20;99.90
25741;DHT22;13592;50.838;4.412;2022-08-19T15:15:36;25.30;99.90
25741;DHT22;13592;50.838;4.412;2022-08-19T15:18:05;25.00;99.90
25741;DHT22;13592;50.838;4.412;2022-08-19T15:20:31;25.10;99.90
25741;DHT22;13592;50.838;4.412;2022-08-19T15:22:56;24.90;99.90
25741;DHT22;13592;50.838;4.412;2022-08-19T15:25:25;24.70;99.90
25741;DHT22;13592;50.838;4.412;2022-08-19T15:27:51;24.90;99.90
25741;DHT22;13592;50.838;4.412;2022-08-19T15:30:22;24.90;99.90
25741;DHT22;13592;50.838;4.412;2022-08-19T15:32:49;24.70;99.90
25741;DHT22;13592;50.838;4.412;2022-08-19T15:35:14;24.90;99.90
25741;DHT22;13592;50.838;4.412;2022-08-19T15:37:42;25.10;99.90
25741;DHT22;13592;50.838;4.412;2022-08-19T15:40:08;25.00;99.90
25741;DHT22;13592;50.838;4.412;2022-08-19T15:42:34;25.00;99.90
25741;DHT22;13592;50.838;4.412;2022-08-19T15:45:02;25.00;99.90
25741;DHT22;13592;50.838;4.412;2022-08-19T15:47:39;25.10;99.90
25741;DHT22;13592;50.838;4.412;2022-08-19T15:50:06;25.20;99.90
25741;DHT22;13592;50.838;4.412;2022-08-19T15:52:35;25.10;99.90
25741;DHT22;13592;50.838;4.412;2022-08-19T15:55:01;25.00;99.90
25741;DHT22;13592;50.838;4.412;2022-08-19T15:57:28;25.00;99.90
25741;DHT22;13592;50.838;4.412;2022-08-19T15:59:54;25.10;99.90
25741;DHT22;13592;50.838;4.412;2022-08-19T16:02:42;25.00;99.90
25741;DHT22;13592;50.838;4.412;2022-08-19T16:05:46;24.90;99.90
25741;DHT22;13592;50.838;4.412;2022-08-19T16:08:31;24.90;99.90
25741;DHT22;13592;50.838;4.412;2022-08-19T16:10:58;24.70;99.90
25741;DHT22;13592;50.838;4.412;2022-08-19T16:13:29;24.80;99.90
25741;DHT22;13592;50.838;4.412;2022-08-19T16:15:58;24.50;99.90
25741;DHT22;13592;50.838;4.412;2022-08-19T16:18:25;24.40;99.90
25741;DHT22;13592;50.838;4.412;2022-08-19T16:20:52;24.20;99.90
25741;DHT22;13592;50.838;4.412;2022-08-19T16:23:20;24.20;99.90
25741;DHT22;13592;50.838;4.412;2022-08-19T16:25:46;24.30;99.90
25741;DHT22;13592;50.838;4.412;2022-08-19T16:28:12;24.20;99.90
25741;DHT22;13592;50.838;4.412;2022-08-19T16:30:38;24.20;99.90
25741;DHT22;13592;50.838;4.412;2022-08-19T16:33:05;24.20;99.90
25741;DHT22;13592;50.838;4.412;2022-08-19T16:35:31;24.30;99.90
25741;DHT22;13592;50.838;4.412;2022-08-19T16:40:29;24.10;99.90
25741;DHT22;13592;50.838;4.412;2022-08-19T16:42:57;23.90;99.90
25741;DHT22;13592;50.838;4.412;2022-08-19T16:48:28;23.90;99.90
25741;DHT22;13592;50.838;4.412;2022-08-19T16:53:28;23.90;99.90
25741;DHT22;13592;50.838;4.412;2022-08-19T16:56:08;23.90;99.90
25741;DHT22;13592;50.838;4.412;2022-08-19T16:58:35;23.80;99.90
25741;DHT22;13592;50.838;4.412;2022-08-19T17:01:02;23.80;99.90
25741;DHT22;13592;50.838;4.412;2022-08-19T17:05:58;23.60;99.90
25741;DHT22;13592;50.838;4.412;2022-08-19T17:08:28;23.60;99.90
25741;DHT22;13592;50.838;4.412;2022-08-19T17:10:57;23.50;99.90
25741;DHT22;13592;50.838;4.412;2022-08-19T17:13:26;23.60;99.90
25741;DHT22;13592;50.838;4.412;2022-08-19T17:16:07;23.70;99.90
25741;DHT22;13592;50.838;4.412;2022-08-19T17:18:35;23.60;99.90
25741;DHT22;13592;50.838;4.412;2022-08-19T17:21:04;23.60;99.90
25741;DHT22;13592;50.838;4.412;2022-08-19T17:26:06;23.70;99.90
25741;DHT22;13592;50.838;4.412;2022-08-19T17:28:33;23.70;99.90
25741;DHT22;13592;50.838;4.412;2022-08-19T17:31:02;23.70;99.90
25741;DHT22;13592;50.838;4.412;2022-08-19T17:33:31;23.80;99.90
25741;DHT22;13592;50.838;4.412;2022-08-19T17:41:38;23.40;99.90
25741;DHT22;13592;50.838;4.412;2022-08-19T17:44:07;23.20;99.90
25741;DHT22;13592;50.838;4.412;2022-08-19T17:46:52;23.00;99.90
25741;DHT22;13592;50.838;4.412;2022-08-19T17:49:25;22.90;99.90
25741;DHT22;13592;50.838;4.412;2022-08-19T17:51:54;23.00;99.90
25741;DHT22;13592;50.838;4.412;2022-08-19T17:54:24;22.90;99.90
25741;DHT22;13592;50.838;4.412;2022-08-19T17:57:02;22.80;99.90
25741;DHT22;13592;50.838;4.412;2022-08-19T17:59:35;22.80;99.90
25741;DHT22;13592;50.838;4.412;2022-08-19T18:02:03;22.80;99.90
25741;DHT22;13592;50.838;4.412;2022-08-19T18:04:44;22.80;99.90
25741;DHT22;13592;50.838;4.412;2022-08-19T18:07:42;22.70;99.90
25741;DHT22;13592;50.838;4.412;2022-08-19T18:10:13;22.70;99.90
25741;DHT22;13592;50.838;4.412;2022-08-19T18:12:39;22.60;99.90
25741;DHT22;13592;50.838;4.412;2022-08-19T18:15:14;22.70;99.90
25741;DHT22;13592;50.838;4.412;2022-08-19T18:17:49;22.70;99.90
25741;DHT22;13592;50.838;4.412;2022-08-19T18:22:46;22.50;99.90
25741;DHT22;13592;50.838;4.412;2022-08-19T18:31:18;22.40;99.90
25741;DHT22;13592;50.838;4.412;2022-08-19T18:33:50;22.70;99.90
25741;DHT22;13592;50.838;4.412;2022-08-19T18:36:25;22.70;99.90
25741;DHT22;13592;50.838;4.412;2022-08-19T18:38:53;22.70;99.90
25741;DHT22;13592;50.838;4.412;2022-08-19T18:44:41;22.60;99.90
25741;DHT22;13592;50.838;4.412;2022-08-19T18:47:25;22.40;99.90
25741;DHT22;13592;50.838;4.412;2022-08-19T18:50:44;22.50;99.90
25741;DHT22;13592;50.838;4.412;2022-08-19T18:53:28;22.50;99.90
25741;DHT22;13592;50.838;4.412;2022-08-19T19:02:23;22.50;99.90
25741;DHT22;13592;50.838;4.412;2022-08-19T19:05:11;22.60;99.90
25741;DHT22;13592;50.838;4.412;2022-08-19T19:07:36;22.60;99.90
25741;DHT22;13592;50.838;4.412;2022-08-19T19:10:02;22.60;99.90
25741;DHT22;13592;50.838;4.412;2022-08-19T19:12:28;22.50;99.90
25741;DHT22;13592;50.838;4.412;2022-08-19T19:14:57;22.40;99.90
25741;DHT22;13592;50.838;4.412;2022-08-19T19:20:10;22.60;99.90
25741;DHT22;13592;50.838;4.412;2022-08-19T19:22:57;22.60;99.90
25741;DHT22;13592;50.838;4.412;2022-08-19T19:27:54;22.60;99.90
25741;DHT22;13592;50.838;4.412;2022-08-19T19:30:20;22.50;99.90